createdAt,value
2019-04-27T00:09:50.325Z,100.0000
2019-04-27T00:20:04.444Z,100.0000
2019-04-27T00:36:23.782Z,100.0000
2019-04-27T00:52:43.622Z,100.0000
2019-04-27T01:00:54.122Z,99.3484
2019-04-27T01:17:14.119Z,98.9151
2019-04-27T01:25:24.601Z,98.7549
2019-04-27T01:49:53.990Z,99.1241
2019-04-27T01:58:04.675Z,98.9700
2019-04-27T02:14:23.814Z,98.6160
2019-04-27T02:30:44.106Z,97.6593
2019-04-27T02:36:52.887Z,97.4578
2019-04-27T03:19:43.420Z,96.3561
2019-04-27T03:27:53.963Z,96.3638
2019-04-27T03:32:04.767Z,96.8032
2019-04-27T03:48:25.917Z,96.9238
2019-04-27T04:02:43.943Z,95.8709
2019-04-27T04:19:03.967Z,97.0382
2019-04-27T04:43:33.314Z,95.6359
2019-04-27T04:53:45.132Z,95.1568
2019-04-27T04:59:54.204Z,95.9030
2019-04-27T05:02:01.839Z,96.2997
2019-04-27T05:36:53.495Z,94.5830
2019-04-27T05:45:03.920Z,93.6584
2019-04-27T05:51:13.489Z,94.3465
2019-04-27T06:21:53.870Z,92.3903
2019-04-27T06:30:05.031Z,90.3258
2019-04-27T06:36:13.843Z,92.3354
2019-04-27T06:46:28.791Z,93.5088
2019-04-27T06:54:40.366Z,93.7041
2019-04-27T06:56:44.690Z,94.4274
2019-04-27T07:02:55.313Z,94.8730
2019-04-27T07:07:01.680Z,93.4844
2019-04-27T07:13:11.285Z,94.6838
2019-04-27T07:15:15.566Z,93.9574
2019-04-27T07:17:19.206Z,94.7066
2019-04-27T07:19:23.237Z,93.8796
2019-04-27T07:27:33.764Z,94.6471
2019-04-27T07:37:48.847Z,94.6120
2019-04-27T07:50:04.170Z,96.3012
2019-04-27T07:54:10.977Z,96.3653
2019-04-27T07:56:15.282Z,96.8215
2019-04-27T08:00:22.004Z,96.8261
2019-04-27T08:02:25.402Z,96.7346
2019-04-27T08:06:31.236Z,97.1054
2019-04-27T08:08:34.698Z,97.6730
2019-04-27T08:10:39.177Z,97.9721
2019-04-27T08:14:46.168Z,97.0749
2019-04-27T08:29:03.696Z,96.9177
2019-04-27T08:45:24.044Z,93.4890
2019-04-27T08:53:34.664Z,94.3603
2019-04-27T08:59:43.445Z,92.7031
2019-04-27T09:16:03.332Z,91.6182
2019-04-27T09:24:14.415Z,91.3985
2019-04-27T09:48:44.460Z,85.3407
2019-04-27T10:17:24.165Z,81.5061
2019-04-27T10:33:45.849Z,78.5931
2019-04-27T11:22:43.744Z,75.1934
2019-04-27T11:30:55.049Z,72.9763
2019-04-27T11:37:03.419Z,73.8537
2019-04-27T11:53:25.997Z,76.6125
2019-04-27T11:59:34.453Z,73.8994
2019-04-27T12:05:42.526Z,71.0811
2019-04-27T12:07:47.848Z,74.1192
2019-04-27T12:11:55.619Z,71.5297
2019-04-27T12:43:45.886Z,81.6114
2019-04-27T12:48:13.296Z,78.4207
2019-04-27T13:09:25.650Z,70.3792
2019-04-27T13:23:45.727Z,69.1890
2019-04-27T13:29:53.942Z,71.3268
2019-04-27T13:36:07.289Z,67.5242
2019-04-27T13:40:13.280Z,66.4012
2019-04-27T13:48:23.769Z,67.3304
2019-04-27T13:56:34.876Z,68.2368
2019-04-27T14:04:46.893Z,70.4494
2019-04-27T14:27:13.898Z,85.6702
2019-04-27T14:35:24.360Z,77.2839
2019-04-27T14:59:54.341Z,81.0056
2019-04-27T15:06:03.912Z,88.4367
2019-04-27T15:08:09.658Z,89.6727
2019-04-27T15:10:16.129Z,91.4946
2019-04-27T15:12:25.195Z,92.9412
2019-04-27T15:14:31.062Z,94.6014
2019-04-27T15:16:37.894Z,94.8119
2019-04-27T15:18:44.564Z,94.9187
2019-04-27T15:20:48.693Z,94.9126
2019-04-27T15:22:56.672Z,95.6497
2019-04-27T15:25:12.894Z,95.3857
2019-04-27T15:27:10.271Z,91.8868
2019-04-27T15:29:14.568Z,91.2825
2019-04-27T15:31:26.347Z,92.5780
2019-04-27T15:33:28.991Z,91.7632
2019-04-27T15:35:35.417Z,90.0099
2019-04-27T15:37:42.185Z,91.5709
2019-04-27T15:39:45.620Z,91.9280
2019-04-27T15:41:49.953Z,91.9692
2019-04-27T15:43:54.052Z,92.4773
2019-04-27T15:45:58.714Z,92.1248
2019-04-27T15:48:03.045Z,93.0175
2019-04-27T15:50:07.919Z,93.4859
2019-04-27T15:52:11.477Z,93.2281
2019-04-27T15:54:15.202Z,95.0469
2019-04-27T15:56:21.561Z,94.3420
2019-04-27T15:58:26.126Z,94.0200
2019-04-27T16:00:30.473Z,94.4091
2019-04-27T16:02:34.838Z,92.1859
2019-04-27T16:04:39.996Z,93.2113
2019-04-27T16:06:48.759Z,93.7102
2019-04-27T16:08:52.206Z,94.5296
2019-04-27T16:10:56.402Z,94.3465
2019-04-27T16:13:06.609Z,93.5638
2019-04-27T16:15:08.507Z,93.5073
2019-04-27T16:17:11.917Z,91.5267
2019-04-27T16:19:15.332Z,92.2637
2019-04-27T16:21:20.072Z,93.6553
2019-04-27T16:23:28.220Z,93.4798
2019-04-27T16:25:45.312Z,93.3166
2019-04-27T16:27:41.743Z,91.9844
2019-04-27T16:29:45.759Z,93.1228
2019-04-27T16:31:49.174Z,91.8364
2019-04-27T16:33:54.114Z,92.9549
2019-04-27T16:36:06.681Z,93.3791
2019-04-27T16:38:10.736Z,93.7514
2019-04-27T16:40:17.616Z,92.2576
2019-04-27T16:42:23.181Z,92.3140
2019-04-27T16:44:27.555Z,90.6188
2019-04-27T16:46:34.803Z,89.5155
2019-04-27T16:48:40.804Z,90.4692
2019-04-27T16:50:44.869Z,89.3156
2019-04-27T16:52:56.547Z,90.0069
2019-04-27T16:54:59.002Z,89.7780
2019-04-27T16:57:05.475Z,87.1092
2019-04-27T16:59:33.965Z,86.4042
2019-04-27T17:01:19.434Z,86.5461
2019-04-27T17:03:23.857Z,84.3519
2019-04-27T17:05:30.922Z,84.1566
2019-04-27T17:07:37.530Z,82.6078
2019-04-27T17:09:46.178Z,82.1149
2019-04-27T17:11:51.796Z,83.2441
2019-04-27T17:13:56.068Z,83.7308
2019-04-27T17:16:00.200Z,83.1388
2019-04-27T17:18:04.244Z,84.2618
2019-04-27T17:20:08.524Z,84.7334
2019-04-27T17:22:14.755Z,83.7491
2019-04-27T17:24:19.638Z,84.2329
2019-04-27T17:26:24.141Z,84.9012
2019-04-27T17:28:28.346Z,83.7842
2019-04-27T17:30:39.828Z,83.2273
2019-04-27T17:32:40.804Z,83.1296
2019-04-27T17:34:44.866Z,83.2441
2019-04-27T17:36:54.499Z,81.7212
2019-04-27T17:38:58.440Z,82.1149
2019-04-27T17:41:04.728Z,82.5254
2019-04-27T17:43:11.157Z,83.9780
2019-04-27T17:45:15.254Z,85.0568
2019-04-27T17:47:20.071Z,86.5049
2019-04-27T17:49:28.099Z,87.6768
2019-04-27T17:51:35.321Z,88.2612
2019-04-27T17:53:40.690Z,88.2078
2019-04-27T17:55:44.723Z,87.9088
2019-04-27T17:57:49.117Z,87.3610
2019-04-27T17:59:59.002Z,85.9556
2019-04-27T18:02:04.617Z,86.5812
2019-04-27T18:04:10.639Z,86.3935
2019-04-27T18:06:14.322Z,86.0792
2019-04-27T18:08:24.595Z,86.7002
2019-04-27T18:10:28.162Z,87.4022
2019-04-27T18:12:32.370Z,86.4714
2019-04-27T18:14:39.454Z,87.4434
2019-04-27T18:16:44.626Z,86.7872
2019-04-27T18:18:48.995Z,86.4042
2019-04-27T18:20:52.572Z,86.7552
2019-04-27T18:22:57.995Z,86.3264
2019-04-27T18:25:06.239Z,87.7180
2019-04-27T18:27:10.957Z,86.5263
2019-04-27T18:29:15.270Z,87.3472
2019-04-27T18:31:18.832Z,87.0344
2019-04-27T18:33:22.993Z,87.8080
2019-04-27T18:35:27.960Z,88.5740
2019-04-27T18:37:33.839Z,88.3772
2019-04-27T18:39:40.821Z,89.4102
2019-04-27T18:41:50.576Z,88.7755
2019-04-27T18:43:55.813Z,89.3050
2019-04-27T18:46:02.373Z,88.8395
2019-04-27T18:48:13.350Z,89.5628
2019-04-27T18:50:17.764Z,89.5949
2019-04-27T18:52:22.215Z,89.3019
2019-04-27T18:54:25.712Z,87.5166
2019-04-27T18:56:33.463Z,87.9362
2019-04-27T18:58:38.956Z,88.1025
2019-04-27T19:00:42.508Z,87.8279
2019-04-27T19:02:49.990Z,88.6976
2019-04-27T19:04:54.485Z,87.9683
2019-04-27T19:06:58.512Z,88.7571
2019-04-27T19:09:04.825Z,88.2261
2019-04-27T19:11:09.278Z,87.4739
2019-04-27T19:13:13.866Z,88.0095
2019-04-27T19:15:18.452Z,89.4926
2019-04-27T19:17:22.051Z,88.7617
2019-04-27T19:19:28.046Z,89.3706
2019-04-27T19:21:32.654Z,90.1945
2019-04-27T19:23:40.259Z,90.3822
2019-04-27T19:25:44.587Z,89.7307
2019-04-27T19:27:58.120Z,91.4290
2019-04-27T19:30:01.691Z,90.8202
2019-04-27T19:32:07.900Z,91.7769
2019-04-27T19:34:12.296Z,91.4626
2019-04-27T19:36:16.762Z,91.7739
2019-04-27T19:38:21.143Z,92.1035
2019-04-27T19:40:24.577Z,92.7855
2019-04-27T19:42:28.957Z,92.3964
2019-04-27T19:44:32.384Z,92.6513
2019-04-27T19:46:35.802Z,92.5643
2019-04-27T19:48:39.841Z,92.3735
2019-04-27T19:50:43.228Z,91.7403
2019-04-27T19:52:47.645Z,92.4331
2019-04-27T19:54:52.199Z,92.3964
2019-04-27T19:56:56.357Z,92.0058
2019-04-27T19:59:00.504Z,92.5368
2019-04-27T20:01:12.031Z,93.0739
2019-04-27T20:03:13.123Z,93.0495
2019-04-27T20:05:18.648Z,93.2296
2019-04-27T20:07:22.266Z,93.6873
2019-04-27T20:09:26.609Z,94.0902
2019-04-27T20:11:30.946Z,94.2550
2019-04-27T20:13:35.607Z,94.9828
2019-04-27T20:15:40.643Z,95.2606
2019-04-27T20:17:46.918Z,95.1156
2019-04-27T20:19:51.578Z,94.9538
2019-04-27T20:21:55.804Z,94.6212
2019-04-27T20:23:59.259Z,94.4915
2019-04-27T20:26:03.223Z,93.4264
2019-04-27T20:28:06.943Z,94.7478
2019-04-27T20:30:11.273Z,95.5581
2019-04-27T20:32:14.451Z,95.8968
2019-04-27T20:34:17.913Z,96.4965
2019-04-27T20:36:21.767Z,95.4314
2019-04-27T20:38:25.845Z,95.2789
2019-04-27T20:40:29.302Z,95.4437
2019-04-27T20:42:32.752Z,95.5764
2019-04-27T20:44:35.854Z,95.4269
2019-04-27T20:46:41.370Z,95.7382
2019-04-27T20:48:46.116Z,96.2737
2019-04-27T20:50:51.307Z,95.4681
2019-04-27T20:52:57.863Z,94.5418
2019-04-27T20:55:01.948Z,95.1919
2019-04-27T20:57:05.410Z,95.6146
2019-04-27T20:59:10.819Z,94.8898
2019-04-27T21:01:14.982Z,94.6303
2019-04-27T21:03:18.419Z,94.5525
2019-04-27T21:05:21.821Z,93.8979
2019-04-27T21:07:26.209Z,94.5296
2019-04-27T21:09:29.672Z,94.6975
2019-04-27T21:11:33.739Z,94.4244
2019-04-27T21:13:38.175Z,93.6873
2019-04-27T21:15:42.217Z,91.5023
2019-04-27T21:17:45.740Z,93.1869
2019-04-27T21:19:49.167Z,94.4045
2019-04-27T21:21:53.604Z,95.1598
2019-04-27T21:23:57.027Z,94.6609
2019-04-27T21:26:02.122Z,94.5144
2019-04-27T21:28:15.322Z,94.7662
2019-04-27T21:30:15.598Z,94.5830
2019-04-27T21:32:19.858Z,94.7662
2019-04-27T21:34:23.972Z,94.7997
2019-04-27T21:36:27.668Z,94.2870
2019-04-27T21:38:32.198Z,95.1324
2019-04-27T21:40:36.450Z,94.9676
2019-04-27T21:42:41.229Z,94.6654
2019-04-27T21:44:45.482Z,94.9096
2019-04-27T21:46:48.883Z,94.5617
2019-04-27T21:48:53.235Z,94.4594
2019-04-27T21:50:57.516Z,94.4366
2019-04-27T21:53:02.500Z,93.1060
2019-04-27T21:55:07.265Z,93.5760
2019-04-27T21:57:12.798Z,91.1498
2019-04-27T21:59:16.996Z,91.0780
2019-04-27T22:01:21.600Z,91.8242
2019-04-27T22:03:25.327Z,92.2362
2019-04-27T22:05:31.379Z,92.4010
2019-04-27T22:07:37.502Z,92.9183
2019-04-27T22:09:43.273Z,93.0220
2019-04-27T22:11:47.762Z,93.0037
2019-04-27T22:13:51.961Z,93.0694
2019-04-27T22:15:56.276Z,93.4066
2019-04-27T22:18:00.677Z,91.7235
2019-04-27T22:20:06.641Z,91.2413
2019-04-27T22:22:12.587Z,90.8385
2019-04-27T22:24:16.863Z,89.3736
2019-04-27T22:26:21.412Z,88.1849
2019-04-27T22:28:25.547Z,88.5313
2019-04-27T22:30:29.128Z,88.6412
2019-04-27T22:32:33.453Z,89.2470
2019-04-27T22:34:37.790Z,86.5095
2019-04-27T22:36:41.928Z,85.6840
2019-04-27T22:38:46.146Z,87.0726
2019-04-27T22:40:50.875Z,86.7094
2019-04-27T22:42:55.446Z,87.1595
2019-04-27T22:45:01.251Z,86.3066
2019-04-27T22:47:04.834Z,86.6590
2019-04-27T22:49:08.249Z,86.4820
2019-04-27T22:51:12.217Z,86.5949
2019-04-27T22:53:16.433Z,87.2374
2019-04-27T22:55:21.978Z,87.6768
2019-04-27T22:57:26.239Z,86.2745
2019-04-27T22:59:31.651Z,88.1972
2019-04-27T23:01:35.831Z,88.5634
2019-04-27T23:03:41.436Z,86.9978
2019-04-27T23:05:45.530Z,88.0247
2019-04-27T23:07:51.253Z,87.1138
2019-04-27T23:09:55.200Z,86.8101
2019-04-27T23:11:59.556Z,87.6432
2019-04-27T23:14:02.974Z,88.8624
2019-04-27T23:16:07.009Z,87.5517
2019-04-27T23:18:11.366Z,88.9982
2019-04-27T23:20:15.385Z,89.6498
2019-04-27T23:22:21.283Z,89.2775
2019-04-27T23:24:25.512Z,87.3655
2019-04-27T23:26:28.499Z,87.4662
2019-04-27T23:28:31.888Z,87.6616
2019-04-27T23:30:35.476Z,87.4662
2019-04-27T23:32:41.250Z,87.3564
2019-04-27T23:34:45.434Z,85.8854
2019-04-27T23:36:49.461Z,86.0563
2019-04-27T23:38:53.828Z,87.0314
2019-04-27T23:40:57.261Z,87.4144
2019-04-27T23:43:01.686Z,86.7658
2019-04-27T23:45:06.053Z,88.5451
2019-04-27T23:47:09.472Z,87.9515
2019-04-27T23:49:12.967Z,88.3024
2019-04-27T23:51:16.968Z,89.6452
2019-04-27T23:53:21.877Z,89.4102
2019-04-27T23:55:26.524Z,88.5878
2019-04-27T23:57:31.661Z,88.5603
2019-04-27T23:59:35.725Z,88.6046
